Time;durP1;ratioP1;P1;durP2;ratioP2;P2;SDS_P1;SDS_P2;PMS_P1;PMS_P2;Temp;Humidity;BMP_temperature;BMP_pressure;BME280_temperature;BME280_humidity;BME280_pressure;Samples;Min_cycle;Max_cycle;Signal;HPM_P1;HPM_P2
2022/05/11 00:02:37;;;;;;;5.30;3.05;;;;;;;12.43;81.08;100669.88;5589866;31;32275;-66
2022/05/11 00:05:40;;;;;;;3.75;2.45;;;;;;;12.41;81.33;100658.56;5576829;31;33104;-66
2022/05/11 00:08:43;;;;;;;5.10;2.80;;;;;;;12.35;82.54;100656.59;5590434;31;33836;-66
2022/05/11 00:11:46;;;;;;;5.20;2.85;;;;;;;12.32;83.74;100668.41;5576625;31;34118;-66
2022/05/11 00:14:48;;;;;;;7.05;3.03;;;;;;;12.29;82.66;100662.62;5589606;31;32488;-66
2022/05/11 00:17:52;;;;;;;5.10;2.53;;;;;;;12.25;82.42;100656.78;5590617;31;34777;-65
2022/05/11 00:20:54;;;;;;;6.07;2.97;;;;;;;12.24;82.66;100655.16;5589587;31;33832;-66
2022/05/11 00:23:57;;;;;;;4.45;2.83;;;;;;;12.22;82.99;100657.13;5590379;31;35220;-66
2022/05/11 00:27:02;;;;;;;6.70;3.22;;;;;;;12.18;83.93;100655.81;5589929;31;34522;-66
2022/05/11 00:30:06;;;;;;;4.68;2.97;;;;;;;12.17;83.98;100662.12;5589154;31;32643;-66
2022/05/11 00:33:13;;;;;;;7.57;3.20;;;;;;;12.10;85.03;100661.97;5590053;31;33838;-66
2022/05/11 00:36:16;;;;;;;5.25;3.30;;;;;;;12.09;85.24;100664.84;5590186;31;33818;-66
2022/05/11 00:39:19;;;;;;;5.50;3.33;;;;;;;12.05;85.22;100660.87;5590093;31;34644;-66
2022/05/11 00:42:24;;;;;;;5.18;3.17;;;;;;;12.05;85.16;100658.22;5590124;31;35187;-66
2022/05/11 00:45:27;;;;;;;5.93;3.40;;;;;;;12.02;85.59;100654.03;5590033;31;33867;-66
2022/05/11 00:51:56;;;;;;;7.45;3.15;;;;;;;11.96;87.65;100649.38;5589329;31;33168;-66
2022/05/11 00:55:11;;;;;;;9.18;3.50;;;;;;;11.93;87.72;100649.75;5589294;31;33848;-66
2022/05/11 00:58:22;;;;;;;6.50;3.28;;;;;;;11.97;87.94;100656.38;5590037;31;33901;-66
2022/05/11 01:01:25;;;;;;;6.57;3.37;;;;;;;11.89;88.68;100661.72;5590300;31;34515;-66
2022/05/11 01:04:31;;;;;;;7.07;3.50;;;;;;;11.85;89.26;100652.44;5589931;31;33911;-66
2022/05/11 01:07:35;;;;;;;6.87;3.40;;;;;;;11.85;89.48;100654.25;5590002;31;33962;-66
2022/05/11 01:10:38;;;;;;;7.18;3.70;;;;;;;11.79;90.24;100662.91;5589919;31;34576;-66
2022/05/11 01:13:42;;;;;;;6.97;3.35;;;;;;;11.80;91.36;100652.09;5589802;31;33840;-66
2022/05/11 01:16:46;;;;;;;5.87;3.50;;;;;;;11.86;90.63;100653.25;5590232;31;33835;-66
2022/05/11 01:19:49;;;;;;;8.18;4.03;;;;;;;11.81;90.80;100655.59;5589821;31;33866;-66
2022/05/11 01:23:09;;;;;;;6.78;3.60;;;;;;;11.75;90.92;100657.09;5589123;31;32361;-66
2022/05/11 01:26:15;;;;;;;7.10;3.45;;;;;;;11.69;91.37;100657.72;5589698;31;33339;-66
2022/05/11 01:29:18;;;;;;;6.60;3.30;;;;;;;11.64;91.42;100660.06;5589723;31;33776;-66
2022/05/11 01:32:23;;;;;;;6.55;3.42;;;;;;;11.60;92.40;100656.09;5589674;31;34162;-66
2022/05/11 01:35:37;;;;;;;5.57;3.00;;;;;;;11.62;92.27;100662.03;5589024;31;32674;-66
2022/05/11 01:38:47;;;;;;;7.05;3.78;;;;;;;11.75;91.80;100655.28;5588559;31;33165;-66
2022/05/11 01:41:51;;;;;;;5.00;3.13;;;;;;;11.79;91.25;100663.72;5588827;31;34086;-66
2022/05/11 01:44:54;;;;;;;5.82;3.37;;;;;;;11.77;91.10;100665.72;5590006;31;33971;-66
2022/05/11 01:47:57;;;;;;;5.65;3.25;;;;;;;11.74;91.17;100664.25;5589583;31;33843;-66
2022/05/11 01:51:00;;;;;;;7.85;3.45;;;;;;;11.67;90.61;100665.84;5588946;31;32301;-66
2022/05/11 01:54:03;;;;;;;6.20;3.42;;;;;;;11.63;90.51;100658.41;5589318;31;33833;-66
2022/05/11 01:57:06;;;;;;;7.20;3.35;;;;;;;11.60;91.55;100659.56;5589315;31;33893;-66
2022/05/11 02:00:09;;;;;;;5.10;3.40;;;;;;;11.53;91.24;100665.72;5588234;31;33835;-66
2022/05/11 02:03:17;;;;;;;5.12;3.30;;;;;;;11.46;91.13;100662.91;5589401;31;34014;-66
2022/05/11 02:09:42;;;;;;;20.48;4.30;;;;;;;11.40;92.03;100663.56;5589649;31;35165;-66
2022/05/11 02:12:45;;;;;;;5.72;3.20;;;;;;;11.32;93.22;100658.25;5589117;31;34603;-66
2022/05/11 02:15:49;;;;;;;8.02;3.70;;;;;;;11.28;93.22;100662.22;5589155;31;33912;-66
2022/05/11 02:18:54;;;;;;;9.85;3.67;;;;;;;11.28;94.32;100665.69;5589057;31;33934;-66
2022/05/11 02:21:57;;;;;;;5.15;3.60;;;;;;;11.23;95.57;100659.25;5589057;31;34272;-66
2022/05/11 02:25:00;;;;;;;5.03;3.47;;;;;;;11.18;95.17;100661.56;5588964;31;33865;-66
2022/05/11 02:28:02;;;;;;;5.07;3.47;;;;;;;11.14;94.48;100658.41;5589023;31;34659;-66
2022/05/11 02:31:05;;;;;;;6.25;4.03;;;;;;;11.12;94.45;100665.72;5575023;31;33222;-66
2022/05/11 02:35:12;;;;;;;8.20;4.20;;;;;;;11.07;95.08;100652.09;5588735;31;34522;-66
2022/05/11 02:37:31;;;;;;;6.15;3.62;;;;;;;11.06;95.54;100654.91;5588761;31;33885;-66
2022/05/11 02:40:36;;;;;;;5.12;3.65;;;;;;;11.00;96.14;100655.56;5587787;31;34539;-66
2022/05/11 02:43:38;;;;;;;4.60;3.62;;;;;;;11.02;96.24;100657.06;5588134;31;32318;-66
2022/05/11 02:46:41;;;;;;;5.35;3.58;;;;;;;10.97;96.81;100653.25;5588018;31;32787;-67
2022/05/11 02:49:45;;;;;;;6.82;4.10;;;;;;;10.93;97.15;100646.59;5588730;31;33909;-67
2022/05/11 02:52:48;;;;;;;6.28;4.15;;;;;;;10.92;98.20;100661.69;5588203;31;33894;-67
2022/05/11 02:55:53;;;;;;;4.65;3.45;;;;;;;10.88;98.99;100647.94;5588529;31;34577;-67
2022/05/11 02:58:56;;;;;;;4.68;3.45;;;;;;;10.87;99.01;100658.69;5574766;31;33806;-67
2022/05/11 03:02:02;;;;;;;6.45;3.50;;;;;;;10.86;99.65;100657.87;5587826;31;33143;-66
2022/05/11 03:05:06;;;;;;;6.60;4.30;;;;;;;10.82;99.53;100651.22;5587527;31;33489;-67
2022/05/11 03:08:10;;;;;;;7.00;4.10;;;;;;;10.78;100.00;100654.37;5588653;31;35208;-67
2022/05/11 03:11:12;;;;;;;9.88;3.60;;;;;;;10.74;100.00;100661.81;5589007;31;32516;-67
2022/05/11 03:14:15;;;;;;;5.95;3.97;;;;;;;10.72;100.00;100661.16;5590022;31;32609;-67
2022/05/11 03:17:18;;;;;;;5.75;3.33;;;;;;;10.74;100.00;100659.19;5590267;31;32280;-67
2022/05/11 03:20:26;;;;;;;6.90;4.10;;;;;;;10.69;100.00;100658.00;5577231;31;32948;-67
2022/05/11 03:23:28;;;;;;;7.10;3.78;;;;;;;10.63;100.00;100661.28;5590284;31;32384;-68
2022/05/11 03:26:31;;;;;;;5.20;3.58;;;;;;;10.64;100.00;100661.13;5591013;31;33825;-68
2022/05/11 03:29:34;;;;;;;3.92;3.42;;;;;;;10.66;100.00;100666.25;5590790;31;34237;-68
2022/05/11 03:35:58;;;;;;;6.55;3.75;;;;;;;10.67;100.00;100679.38;5589740;31;33265;-67
2022/05/11 03:39:01;;;;;;;6.97;4.07;;;;;;;10.69;100.00;100679.22;5590609;31;34527;-68
2022/05/11 03:42:05;;;;;;;6.45;3.80;;;;;;;10.71;100.00;100678.06;5590916;31;34583;-67
2022/05/11 03:45:12;;;;;;;7.32;3.97;;;;;;;10.77;100.00;100682.72;5577095;31;32927;-67
2022/05/11 03:48:16;;;;;;;5.15;3.78;;;;;;;10.82;100.00;100692.84;5589988;31;32352;-68
2022/05/11 03:51:19;;;;;;;7.15;4.12;;;;;;;10.88;100.00;100682.44;5590634;31;35194;-66
2022/05/11 03:54:22;;;;;;;10.35;3.70;;;;;;;10.97;100.00;100679.78;5590384;31;33789;-67
2022/05/11 03:57:25;;;;;;;8.95;4.20;;;;;;;11.12;100.00;100681.66;5590525;31;34369;-67
2022/05/11 04:00:28;;;;;;;6.68;4.00;;;;;;;11.16;100.00;100682.97;5589758;31;32262;-67
2022/05/11 04:03:31;;;;;;;8.07;4.18;;;;;;;11.22;100.00;100687.63;5590629;31;33843;-66
2022/05/11 04:06:33;;;;;;;8.38;4.35;;;;;;;11.32;100.00;100684.81;5576707;31;34232;-67
2022/05/11 04:09:36;;;;;;;6.68;4.00;;;;;;;11.43;100.00;100694.25;5589367;31;32463;-67
2022/05/11 04:12:39;;;;;;;6.60;4.03;;;;;;;11.51;100.00;100692.47;5590413;31;34557;-67
2022/05/11 04:15:42;;;;;;;7.35;4.10;;;;;;;11.62;100.00;100699.25;5589513;31;33856;-66
2022/05/11 04:18:45;;;;;;;6.22;3.87;;;;;;;11.76;100.00;100702.09;5590233;31;35177;-67
2022/05/11 04:21:48;;;;;;;7.12;3.95;;;;;;;11.88;100.00;100697.28;5589956;31;34520;-67
2022/05/11 04:24:50;;;;;;;5.90;4.00;;;;;;;12.00;100.00;100703.91;5590172;31;34627;-67
2022/05/11 04:27:54;;;;;;;6.00;4.10;;;;;;;12.26;98.76;100708.16;5589980;31;33900;-67
2022/05/11 04:31:07;;;;;;;5.90;4.10;;;;;;;12.38;97.36;100704.97;5576111;31;33716;-67
2022/05/11 04:34:12;;;;;;;6.40;4.35;;;;;;;12.53;97.35;100710.41;5590002;31;34521;-67
2022/05/11 04:37:15;;;;;;;6.80;4.28;;;;;;;12.67;96.96;100708.84;5588764;31;32581;-67
2022/05/11 04:40:18;;;;;;;8.38;3.92;;;;;;;12.74;96.93;100707.16;5589494;31;32304;-67
2022/05/11 04:43:21;;;;;;;6.28;3.55;;;;;;;12.82;96.99;100709.78;5590061;31;33961;-67
2022/05/11 04:46:23;;;;;;;7.75;4.50;;;;;;;12.90;96.83;100702.59;5589987;31;33979;-67
2022/05/11 04:49:26;;;;;;;6.15;3.90;;;;;;;13.05;95.57;100706.16;5589209;31;33065;-67
2022/05/11 04:52:29;;;;;;;7.72;4.20;;;;;;;13.16;94.91;100709.47;5589586;31;34514;-67
2022/05/11 04:55:31;;;;;;;6.47;4.12;;;;;;;13.27;94.57;100706.38;5589975;31;33955;-67
2022/05/11 04:58:36;;;;;;;8.40;4.20;;;;;;;13.42;93.44;100708.09;5589100;31;32650;-66
2022/05/11 05:01:39;;;;;;;14.05;4.40;;;;;;;13.55;93.98;100704.00;5589241;31;33195;-67
2022/05/11 05:04:42;;;;;;;8.38;4.37;;;;;;;13.72;93.63;100705.53;5588881;31;32698;-67
2022/05/11 05:07:45;;;;;;;6.57;3.90;;;;;;;13.95;93.27;100714.31;5589981;31;35127;-67
2022/05/11 05:10:48;;;;;;;8.68;4.70;;;;;;;13.98;91.80;100713.12;5588932;31;33084;-67
2022/05/11 05:13:51;;;;;;;8.57;4.50;;;;;;;14.08;90.81;100714.53;5589545;31;34542;-67
2022/05/11 05:17:03;;;;;;;6.43;4.43;;;;;;;14.22;91.05;100716.38;5575964;31;32580;-67
2022/05/11 05:20:07;;;;;;;13.20;4.62;;;;;;;14.37;88.49;100715.59;5589626;31;33796;-67
2022/05/11 05:23:11;;;;;;;8.23;4.90;;;;;;;14.58;87.82;100718.31;5588774;31;32782;-67
2022/05/11 05:26:14;;;;;;;10.60;4.40;;;;;;;14.72;86.99;100718.31;5588758;31;32656;-67
2022/05/11 05:32:41;;;;;;;8.77;4.60;;;;;;;14.98;85.19;100720.47;5588678;31;34331;-67
2022/05/11 05:35:43;;;;;;;10.65;5.50;;;;;;;15.16;84.64;100726.22;5588413;31;33456;-68
2022/05/11 05:38:47;;;;;;;10.07;5.15;;;;;;;15.35;80.39;100722.09;5588323;31;32729;-67
2022/05/11 05:41:56;;;;;;;10.52;5.37;;;;;;;15.55;77.14;100711.63;5589364;31;34694;-67
2022/05/11 05:44:58;;;;;;;8.07;5.03;;;;;;;15.77;77.39;100712.44;5588550;31;33699;-67
2022/05/11 05:48:02;;;;;;;10.63;4.43;;;;;;;15.84;77.51;100711.47;5589435;31;34395;-67
2022/05/11 05:51:07;;;;;;;7.57;5.10;;;;;;;15.92;76.98;100721.22;5588159;31;33244;-67
2022/05/11 05:54:11;;;;;;;7.90;4.93;;;;;;;15.86;77.88;100714.78;5588202;31;33583;-67
2022/05/11 05:57:14;;;;;;;9.07;5.10;;;;;;;15.95;76.23;100705.59;5588322;31;32404;-66
2022/05/11 06:00:18;;;;;;;9.70;5.55;;;;;;;16.14;75.76;100709.44;5589194;31;34646;-67
2022/05/11 06:03:27;;;;;;;8.77;5.40;;;;;;;16.38;74.25;100711.66;5588284;31;33231;-67
2022/05/11 06:06:29;;;;;;;11.97;6.37;;;;;;;16.58;73.05;100719.81;5588495;31;33228;-67
2022/05/11 06:09:32;;;;;;;12.98;6.00;;;;;;;16.75;72.85;100720.31;5588968;31;33870;-67
2022/05/11 06:12:36;;;;;;;11.50;6.07;;;;;;;16.80;74.79;100723.19;5588121;31;32641;-67
2022/05/11 06:15:39;;;;;;;8.70;5.47;;;;;;;17.01;72.16;100717.72;5587979;31;32486;-67
2022/05/11 06:18:43;;;;;;;14.18;6.70;;;;;;;17.15;71.41;100721.25;5588464;31;33846;-66
2022/05/11 06:21:48;;;;;;;16.02;6.47;;;;;;;17.29;70.21;100718.41;5587657;31;32717;-67
2022/05/11 06:24:51;;;;;;;10.68;6.32;;;;;;;17.49;69.48;100717.63;5588552;31;34060;-67
2022/05/11 06:27:53;;;;;;;9.43;6.18;;;;;;;17.69;68.11;100719.34;5587290;31;32482;-66
2022/05/11 06:30:56;;;;;;;10.23;6.28;;;;;;;17.89;68.23;100715.81;5587519;31;32591;-67
2022/05/11 06:34:00;;;;;;;11.68;6.03;;;;;;;18.09;68.29;100714.78;5588466;31;33950;-67
2022/05/11 06:37:03;;;;;;;13.65;6.60;;;;;;;18.27;65.71;100715.97;5587643;31;32889;-67
2022/05/11 06:40:08;;;;;;;13.60;6.25;;;;;;;18.53;63.45;100713.25;5588431;31;33946;-67
2022/05/11 06:43:12;;;;;;;11.60;6.10;;;;;;;18.76;62.46;100715.47;5587261;31;33599;-67
2022/05/11 06:46:15;;;;;;;11.20;5.97;;;;;;;18.92;60.89;100721.19;5590262;31;34358;-68
2022/05/11 06:49:19;;;;;;;11.93;5.80;;;;;;;19.10;60.91;100721.28;5590772;31;33861;-68
2022/05/11 06:52:22;;;;;;;8.82;5.68;;;;;;;19.20;60.60;100712.75;5590302;31;32579;-67
2022/05/11 07:02:07;;;;;;;9.40;5.78;;;;;;;20.15;56.76;100716.19;5590491;31;34227;-68
2022/05/11 07:05:11;;;;;;;11.82;5.60;;;;;;;20.52;56.40;100711.69;5589890;31;32662;-68
2022/05/11 07:08:14;;;;;;;9.98;5.47;;;;;;;20.83;55.70;100715.03;5589930;31;34138;-68
2022/05/11 07:14:39;;;;;;;8.10;5.28;;;;;;;21.63;52.89;100707.50;5590023;31;34005;-68
2022/05/11 07:17:56;;;;;;;12.98;5.37;;;;;;;22.76;50.15;100709.00;5589433;31;33333;-69
2022/05/11 07:20:58;;;;;;;9.55;4.97;;;;;;;23.72;46.84;100706.22;5576630;31;33800;-70
2022/05/11 07:24:01;;;;;;;8.55;4.72;;;;;;;24.68;42.66;100707.66;5590556;31;33981;-69
2022/05/11 07:27:04;;;;;;;7.37;4.75;;;;;;;25.50;41.30;100702.06;5590225;31;35145;-69
2022/05/11 07:30:11;;;;;;;9.65;5.03;;;;;;;26.35;39.46;100698.34;5590600;31;33899;-69
2022/05/11 07:33:15;;;;;;;10.68;4.47;;;;;;;27.02;39.95;100705.72;5589548;31;33165;-69
2022/05/11 07:36:19;;;;;;;7.65;4.20;;;;;;;26.92;37.52;100699.41;5589816;31;34212;-68
2022/05/11 07:39:23;;;;;;;7.37;3.83;;;;;;;28.03;35.99;100694.09;5589586;31;34600;-67
2022/05/11 07:42:27;;;;;;;15.07;4.18;;;;;;;28.55;33.10;100704.63;5589401;31;33051;-67
2022/05/11 07:45:30;;;;;;;8.55;3.95;;;;;;;28.80;32.31;100696.38;5590470;31;34711;-67
2022/05/11 07:48:33;;;;;;;15.65;5.03;;;;;;;28.55;32.94;100696.44;5589385;31;32375;-67
2022/05/11 07:51:36;;;;;;;10.57;4.15;;;;;;;28.95;33.18;100700.91;5590395;31;34433;-67
2022/05/11 07:54:40;;;;;;;9.35;3.95;;;;;;;29.25;32.69;100691.72;5589590;31;33878;-68
2022/05/11 08:01:05;;;;;;;7.68;2.10;;;;;;;29.08;31.24;100700.31;5578502;31;32771;-67
2022/05/11 08:04:09;;;;;;;4.22;2.05;;;;;;;28.25;29.81;100702.00;5590311;31;34458;-67
2022/05/11 08:07:13;;;;;;;5.18;2.10;;;;;;;28.82;28.24;100707.81;5589884;31;33175;-67
2022/05/11 08:10:21;;;;;;;3.00;1.77;;;;;;;28.90;28.34;100693.56;5589613;31;32767;-68
2022/05/11 08:13:24;;;;;;;3.08;1.70;;;;;;;29.19;28.40;100687.41;5590156;31;34585;-67
2022/05/11 08:16:28;;;;;;;6.70;1.95;;;;;;;30.44;27.32;100690.12;5589904;31;33901;-67
2022/05/11 08:19:31;;;;;;;3.72;1.95;;;;;;;30.19;27.35;100685.75;5589065;31;32305;-68
2022/05/11 08:22:34;;;;;;;2.37;1.42;;;;;;;30.46;26.52;100684.34;5590523;31;34570;-67
2022/05/11 08:25:39;;;;;;;4.12;1.50;;;;;;;31.10;26.00;100680.25;5590249;31;34352;-67
2022/05/11 08:28:43;;;;;;;3.60;1.40;;;;;;;31.43;26.99;100679.19;5588418;31;35118;-66
2022/05/11 08:35:07;;;;;;;3.45;1.65;;;;;;;29.83;27.89;100684.44;5589422;31;34543;-66
2022/05/11 08:38:13;;;;;;;4.20;1.67;;;;;;;28.75;28.34;100684.66;5589770;31;34005;-68
2022/05/11 08:41:30;;;;;;;3.83;1.55;;;;;;;29.02;26.05;100681.47;5589614;31;33946;-67
2022/05/11 08:44:37;;;;;;;3.70;1.35;;;;;;;30.49;24.35;100683.78;5588894;31;33851;-67
2022/05/11 08:47:50;;;;;;;2.55;1.30;;;;;;;30.53;22.72;100685.66;5576553;31;33871;-68
2022/05/11 08:50:53;;;;;;;1.85;1.20;;;;;;;31.25;22.31;100682.75;5588882;31;32525;-68
2022/05/11 08:54:04;;;;;;;4.35;1.62;;;;;;;32.90;20.65;100684.69;5590018;31;34507;-68
2022/05/11 08:57:23;;;;;;;2.50;1.50;;;;;;;34.15;19.80;100671.66;5589361;31;35111;-67
2022/05/11 09:00:26;;;;;;;4.37;1.50;;;;;;;34.19;19.56;100680.13;5588742;31;35127;-68
2022/05/11 09:03:39;;;;;;;4.53;1.73;;;;;;;34.73;18.92;100671.41;5588612;31;33670;-68
2022/05/11 09:06:44;;;;;;;4.30;1.40;;;;;;;34.30;19.32;100670.47;5575568;31;34284;-66
2022/05/11 09:09:50;;;;;;;6.07;1.40;;;;;;;32.96;20.42;100664.19;5588178;31;32990;-67
2022/05/11 09:12:56;;;;;;;2.85;1.75;;;;;;;34.52;20.09;100667.59;5575712;31;33068;-66
2022/05/11 09:16:02;;;;;;;4.28;1.23;;;;;;;35.37;19.01;100671.63;5588302;31;32420;-66
2022/05/11 09:19:32;;;;;;;2.67;1.30;;;;;;;34.16;19.18;100672.47;5589285;31;34020;-68
2022/05/11 09:22:38;;;;;;;8.82;1.80;;;;;;;33.64;19.07;100674.94;5589414;31;34037;-67
2022/05/11 09:26:02;;;;;;;4.07;1.35;;;;;;;32.87;20.40;100666.88;5589346;31;33855;-67
2022/05/11 09:29:16;;;;;;;2.50;1.30;;;;;;;31.40;21.06;100661.41;5588153;31;33604;-69
2022/05/11 09:32:31;;;;;;;3.00;1.52;;;;;;;32.96;20.50;100658.72;5590830;31;33986;-69
2022/05/11 09:35:36;;;;;;;3.10;1.55;;;;;;;34.05;21.72;100663.69;5590237;31;32893;-66
2022/05/11 09:38:48;;;;;;;2.65;1.40;;;;;;;31.94;24.79;100668.19;5588813;31;32698;-67
2022/05/11 09:41:52;;;;;;;3.90;1.80;;;;;;;32.53;21.86;100667.31;5588749;31;32465;-66
2022/05/11 09:44:55;;;;;;;2.85;1.50;;;;;;;32.55;21.12;100658.75;5588076;31;32532;-66
2022/05/11 09:48:08;;;;;;;5.85;1.30;;;;;;;32.53;20.73;100658.25;5588062;31;33601;-68
2022/05/11 09:51:35;;;;;;;2.47;1.85;;;;;;;30.36;22.74;100654.34;5588483;31;32369;-67
2022/05/11 09:54:48;;;;;;;4.85;1.60;;;;;;;31.65;21.84;100654.72;5588360;31;33291;-67
2022/05/11 09:57:59;;;;;;;2.42;1.40;;;;;;;33.18;20.09;100659.56;5589191;31;33833;-67
2022/05/11 10:01:13;;;;;;;2.95;1.50;;;;;;;34.05;20.09;100659.00;5588965;31;34313;-68
2022/05/11 10:04:22;;;;;;;2.70;1.52;;;;;;;33.42;20.05;100658.44;5588889;31;33998;-68
2022/05/11 10:07:56;;;;;;;5.07;1.80;;;;;;;33.16;21.41;100656.31;5589349;31;32771;-66
2022/05/11 10:11:23;;;;;;;2.72;1.42;;;;;;;32.28;22.72;100651.34;5588983;31;33914;-68
2022/05/11 10:25:09;;;;;;;4.57;1.92;;;;;;;35.31;20.03;100648.91;5588036;31;32199;-66
2022/05/11 10:28:43;;;;;;;1.83;1.30;;;;;;;33.67;21.29;100654.22;5583017;31;159915;-66
2022/05/11 10:32:05;;;;;;;3.47;1.50;;;;;;;33.66;21.71;100647.91;5588777;31;34096;-67
2022/05/11 10:35:29;;;;;;;2.45;1.40;;;;;;;33.98;20.96;100653.16;5588102;31;32328;-68
2022/05/11 10:38:47;;;;;;;2.22;1.52;;;;;;;35.19;19.10;100637.72;5574669;31;33131;-67
2022/05/11 10:42:23;;;;;;;3.17;1.40;;;;;;;35.76;19.22;100640.22;5587486;31;32903;-67
2022/05/11 10:45:57;;;;;;;3.80;1.42;;;;;;;37.22;17.62;100633.87;5587503;31;34920;-67
2022/05/11 10:49:26;;;;;;;2.70;1.50;;;;;;;37.88;17.18;100630.22;5564960;31;33870;-67
2022/05/11 10:52:32;;;;;;;3.45;1.70;;;;;;;36.68;17.65;100624.69;5575013;31;32620;-65
2022/05/11 10:55:38;;;;;;;2.85;1.48;;;;;;;37.34;18.26;100622.00;5587501;31;33563;-67
2022/05/11 10:59:14;;;;;;;2.58;1.40;;;;;;;37.33;17.48;100620.37;5574468;31;32339;-68
2022/05/11 11:02:51;;;;;;;3.08;1.40;;;;;;;37.07;17.63;100631.72;5587685;31;32356;-67
2022/05/11 11:09:58;;;;;;;2.10;1.52;;;;;;;34.24;19.81;100611.13;5588357;31;34576;-67
2022/05/11 11:13:24;;;;;;;3.42;1.70;;;;;;;33.23;21.17;100619.31;5588043;31;34224;-67
2022/05/11 11:16:39;;;;;;;5.47;1.83;;;;;;;32.49;24.14;100611.34;5586839;31;32436;-67
2022/05/11 11:19:47;;;;;;;3.33;1.55;;;;;;;31.24;23.54;100610.66;5587919;31;34017;-67
2022/05/11 11:23:08;;;;;;;3.00;1.45;;;;;;;30.71;23.59;100604.62;5587736;31;33929;-68
2022/05/11 11:26:33;;;;;;;3.92;1.55;;;;;;;33.15;22.48;100607.13;5587817;31;35191;-68
2022/05/11 11:29:38;;;;;;;5.07;1.48;;;;;;;33.98;20.61;100600.84;5587599;31;34062;-67
2022/05/11 11:33:15;;;;;;;3.25;1.77;;;;;;;34.59;19.98;100598.25;5589771;31;33792;-67
2022/05/11 11:36:18;;;;;;;5.10;1.60;;;;;;;36.45;19.17;100598.50;5569986;31;34038;-67
2022/05/11 11:39:52;;;;;;;7.28;1.40;;;;;;;35.01;20.07;100596.66;5590724;31;34601;-66
2022/05/11 11:42:55;;;;;;;3.22;1.48;;;;;;;37.22;18.44;100595.12;5590489;31;34462;-66
2022/05/11 11:46:03;;;;;;;3.25;1.50;;;;;;;38.28;17.36;100586.84;5589545;31;33596;-67
2022/05/11 11:49:08;;;;;;;2.30;1.40;;;;;;;36.88;18.12;100578.81;5590427;31;34675;-67
2022/05/11 11:52:34;;;;;;;3.70;1.60;;;;;;;38.92;16.55;100580.50;5590480;31;34332;-66
2022/05/11 11:55:37;;;;;;;4.93;1.60;;;;;;;38.12;16.66;100577.62;5589525;31;32453;-66
2022/05/11 11:58:40;;;;;;;3.15;1.70;;;;;;;38.70;16.38;100563.22;5589218;31;32633;-66
2022/05/11 12:01:46;;;;;;;4.25;1.67;;;;;;;34.47;19.59;100566.63;5589550;31;32500;-66
2022/05/11 12:05:01;;;;;;;2.33;1.40;;;;;;;35.33;18.70;100560.31;5590652;31;33857;-66
2022/05/11 12:15:23;;;;;;;3.20;1.77;;;;;;;36.75;17.29;100553.06;5589290;31;32455;-68
2022/05/11 12:18:32;;;;;;;2.17;1.67;;;;;;;39.17;15.51;100559.00;5590405;31;33989;-66
2022/05/11 12:21:40;;;;;;;2.55;1.25;;;;;;;38.86;15.64;100549.41;5589132;31;33402;-69
2022/05/11 12:25:05;;;;;;;3.85;1.62;;;;;;;40.34;14.07;100546.88;5576062;31;33172;-68
2022/05/11 12:28:29;;;;;;;2.67;1.30;;;;;;;40.90;13.75;100557.62;5581479;31;34247;-67
2022/05/11 12:31:35;;;;;;;2.87;1.40;;;;;;;41.72;13.00;100551.59;5590225;31;34639;-68
2022/05/11 12:34:46;;;;;;;3.20;1.60;;;;;;;42.24;12.82;100544.41;5589314;31;33932;-67
2022/05/11 12:38:02;;;;;;;2.28;1.20;;;;;;;40.27;13.93;100538.41;5590471;31;33871;-68
2022/05/11 12:41:17;;;;;;;3.17;1.40;;;;;;;38.33;15.23;100533.16;5590167;31;33885;-68
2022/05/11 12:44:25;;;;;;;2.03;1.35;;;;;;;42.20;12.84;100527.66;5589230;31;32456;-68
2022/05/11 12:47:28;;;;;;;3.72;1.40;;;;;;;40.41;14.71;100514.84;5589895;31;35155;-68
2022/05/11 12:50:33;;;;;;;3.37;1.30;;;;;;;41.47;13.69;100516.94;5589192;31;33804;-69
2022/05/11 12:53:57;;;;;;;2.72;1.10;;;;;;;43.03;12.38;100517.12;5589048;31;33958;-68
2022/05/11 12:57:17;;;;;;;2.53;1.30;;;;;;;44.38;10.90;100512.63;5589085;31;33033;-67
2022/05/11 13:00:19;;;;;;;2.08;1.17;;;;;;;41.31;13.50;100505.91;5588670;31;32432;-66
2022/05/11 13:03:26;;;;;;;2.50;1.58;;;;;;;43.05;11.52;100502.78;5588788;31;33338;-67
2022/05/11 13:06:36;;;;;;;2.28;1.33;;;;;;;39.82;13.25;100500.00;5589035;31;33936;-67
2022/05/11 13:09:44;;;;;;;3.78;1.10;;;;;;;40.07;13.87;100492.25;5588679;31;32923;-67
2022/05/11 13:12:51;;;;;;;3.40;1.30;;;;;;;41.38;13.26;100499.66;5589419;31;34600;-66
2022/05/11 13:16:01;;;;;;;;;;;;;;;39.70;14.13;100490.97;5589414;31;32631;-67
2022/05/11 13:19:26;;;;;;;2.10;1.42;;;;;;;40.54;13.43;100497.63;5589644;31;34298;-67
2022/05/11 13:22:29;;;;;;;2.80;1.23;;;;;;;38.29;15.19;100489.47;5589744;31;33442;-67
2022/05/11 13:25:47;;;;;;;5.15;1.52;;;;;;;36.56;16.80;100489.94;5589823;31;33787;-68
2022/05/11 13:29:13;;;;;;;4.18;1.55;;;;;;;37.22;16.29;100489.19;5588659;31;32678;-67
2022/05/11 13:32:25;;;;;;;4.62;1.40;;;;;;;41.53;13.00;100480.06;5588443;31;32414;-67
2022/05/11 13:35:37;;;;;;;3.55;1.67;;;;;;;39.70;14.40;100477.09;5588463;31;33814;-68
2022/05/11 13:38:49;;;;;;;2.50;1.65;;;;;;;41.78;12.52;100471.28;5589372;31;33885;-67
2022/05/11 13:41:53;;;;;;;3.25;1.52;;;;;;;39.91;13.69;100463.69;5588398;31;34339;-67
2022/05/11 13:45:00;;;;;;;2.05;1.40;;;;;;;38.39;15.50;100451.38;5587672;31;33112;-67
2022/05/11 13:48:12;;;;;;;6.07;1.70;;;;;;;37.18;16.72;100466.12;5589413;31;33819;-67
2022/05/11 13:51:20;;;;;;;4.72;1.30;;;;;;;38.32;15.89;100454.72;5588274;31;32410;-68
2022/05/11 13:54:35;;;;;;;3.35;1.50;;;;;;;35.74;17.12;100452.03;5574187;31;34035;-67
2022/05/11 13:57:39;;;;;;;5.37;1.62;;;;;;;35.37;17.45;100448.16;5589126;31;35081;-67
2022/05/11 14:00:42;;;;;;;5.00;1.50;;;;;;;34.81;19.76;100452.84;5588327;31;33079;-66
2022/05/11 14:03:57;;;;;;;4.68;1.30;;;;;;;35.97;17.25;100450.56;5588059;31;33785;-67
2022/05/11 14:07:12;;;;;;;2.75;1.50;;;;;;;32.75;20.99;100436.59;5587857;31;33247;-66
2022/05/11 14:10:15;;;;;;;7.80;1.55;;;;;;;30.32;23.45;100443.34;5588649;31;33874;-68
2022/05/11 14:13:18;;;;;;;2.25;1.40;;;;;;;31.82;22.07;100434.63;5587855;31;33023;-68
2022/05/11 14:16:27;;;;;;;6.15;1.48;;;;;;;33.52;20.53;100436.16;5587194;31;34697;-67
2022/05/11 14:19:31;;;;;;;3.92;1.80;;;;;;;30.73;23.89;100432.59;5587573;31;32626;-67
2022/05/11 14:22:39;;;;;;;2.35;1.55;;;;;;;30.52;25.27;100428.56;5588814;31;35229;-67
2022/05/11 14:25:41;;;;;;;9.02;1.40;;;;;;;29.61;24.99;100421.62;5588274;31;33916;-67
2022/05/11 14:29:00;;;;;;;4.55;1.73;;;;;;;28.47;26.48;100421.34;5587657;31;34245;-66
2022/05/11 14:32:12;;;;;;;2.15;1.45;;;;;;;28.18;27.74;100424.00;5587737;31;33926;-66
2022/05/11 14:35:20;;;;;;;2.53;1.60;;;;;;;28.71;27.25;100419.53;5574368;31;34014;-68
2022/05/11 14:38:23;;;;;;;6.82;1.80;;;;;;;28.35;26.78;100416.25;5587965;31;35338;-66
2022/05/11 14:41:26;;;;;;;6.30;1.80;;;;;;;28.73;26.75;100411.06;5586522;31;32774;-67
2022/05/11 14:44:29;;;;;;;6.90;1.80;;;;;;;29.12;26.75;100408.22;5587143;31;33905;-67
2022/05/11 14:48:00;;;;;;;4.75;1.58;;;;;;;29.24;26.25;100403.19;5586816;31;32465;-67
2022/05/11 14:51:06;;;;;;;4.82;1.80;;;;;;;28.44;28.64;100409.09;5586556;31;32873;-67
2022/05/11 14:54:12;;;;;;;2.70;1.48;;;;;;;27.92;27.78;100401.50;5586801;31;33957;-67
2022/05/11 15:04:05;;;;;;;3.72;1.50;;;;;;;29.05;26.88;100391.38;5586802;31;33485;-67
2022/05/11 15:07:10;;;;;;;8.27;1.60;;;;;;;28.14;28.19;100392.94;5589092;31;32253;-67
2022/05/11 15:10:14;;;;;;;2.50;1.52;;;;;;;29.06;28.18;100382.03;5590079;31;34482;-67
2022/05/11 15:13:32;;;;;;;2.90;1.62;;;;;;;29.53;26.15;100386.72;5589376;31;32681;-67
2022/05/11 15:16:37;;;;;;;4.60;1.67;;;;;;;29.14;26.82;100393.19;5589933;31;33946;-67
2022/05/11 15:19:40;;;;;;;2.53;1.42;;;;;;;28.66;25.90;100392.25;5588983;31;32993;-66
2022/05/11 15:22:43;;;;;;;4.65;1.85;;;;;;;29.02;26.08;100390.00;5590093;31;34593;-67
2022/05/11 15:25:47;;;;;;;3.10;1.70;;;;;;;27.88;27.66;100394.19;5590335;31;33978;-68
2022/05/11 15:28:51;;;;;;;3.85;1.65;;;;;;;27.47;29.50;100397.06;5589063;31;32728;-67
2022/05/11 15:32:06;;;;;;;3.37;1.80;;;;;;;26.89;28.92;100384.16;5589176;31;34746;-67